Time;durP1;ratioP1;P1;durP2;ratioP2;P2;SDS_P1;SDS_P2;PMS_P1;PMS_P2;Temp;Humidity;BMP_temperature;BMP_pressure;BME280_temperature;BME280_humidity;BME280_pressure;Samples;Min_cycle;Max_cycle;Signal;HPM_P1;HPM_P2
2022/09/13 00:00:45;;;;;;;21.50;15.75;;;17.30;99.90;;;;;;5095068;28;20051;-62
2022/09/13 00:03:11;;;;;;;22.40;15.50;;;17.30;99.90;;;;;;5095250;28;20385;-61
2022/09/13 00:05:38;;;;;;;24.05;18.02;;;17.30;99.90;;;;;;5094144;28;20048;-62
2022/09/13 00:08:05;;;;;;;24.70;17.77;;;17.30;99.90;;;;;;5094444;28;20040;-62
2022/09/13 00:10:37;;;;;;;29.73;19.23;;;17.30;99.90;;;;;;5094717;28;20075;-61
2022/09/13 00:13:04;;;;;;;33.63;19.98;;;17.30;99.90;;;;;;5075361;28;20044;-62
2022/09/13 00:15:30;;;;;;;22.02;16.40;;;17.30;99.90;;;;;;5076535;28;20040;-62
2022/09/13 00:17:56;;;;;;;24.75;18.88;;;17.30;99.90;;;;;;5075908;28;20044;-62
2022/09/13 00:20:22;;;;;;;32.85;20.10;;;17.40;99.90;;;;;;5093586;28;20056;-62
2022/09/13 00:22:47;;;;;;;28.30;20.23;;;17.40;99.90;;;;;;5076326;28;20079;-61
2022/09/13 00:25:13;;;;;;;23.60;18.45;;;17.40;99.90;;;;;;5075713;28;20177;-62
2022/09/13 00:27:39;;;;;;;27.90;20.25;;;17.40;99.90;;;;;;5094731;28;20071;-62
2022/09/13 00:30:07;;;;;;;30.77;22.80;;;17.40;99.90;;;;;;5058921;28;20413;-61
2022/09/13 00:32:34;;;;;;;27.50;21.98;;;17.40;99.90;;;;;;5075500;28;20070;-63
2022/09/13 00:35:00;;;;;;;30.95;21.75;;;17.40;99.90;;;;;;5075664;28;20101;-61
2022/09/13 00:37:26;;;;;;;31.08;22.42;;;17.40;99.90;;;;;;5059737;28;20434;-62
2022/09/13 00:39:52;;;;;;;25.83;18.95;;;17.40;99.90;;;;;;5092733;28;20039;-62
2022/09/13 00:42:23;;;;;;;24.58;18.17;;;17.40;99.90;;;;;;5094375;28;20119;-61
2022/09/13 00:44:58;;;;;;;26.60;19.30;;;17.40;99.90;;;;;;5093587;28;20046;-61
2022/09/13 00:47:32;;;;;;;32.25;19.88;;;17.40;99.90;;;;;;5093410;28;20478;-62
2022/09/13 00:50:01;;;;;;;;;;;17.40;99.90;;;;;;5075719;28;20052;-62
2022/09/13 00:52:29;;;;;;;23.08;17.95;;;17.30;99.90;;;;;;5092774;28;19972;-62
2022/09/13 00:55:01;;;;;;;22.30;16.65;;;17.30;99.90;;;;;;5092503;28;20480;-61
2022/09/13 00:57:30;;;;;;;23.17;17.13;;;17.30;99.90;;;;;;5093754;28;20511;-62
2022/09/13 01:00:00;;;;;;;23.80;18.40;;;17.30;99.90;;;;;;5093236;28;20090;-62
2022/09/13 01:02:27;;;;;;;20.77;17.08;;;17.30;99.90;;;;;;5074838;28;20090;-61
2022/09/13 01:04:53;;;;;;;23.15;18.88;;;17.30;99.90;;;;;;5058379;28;20075;-62
2022/09/13 01:07:19;;;;;;;21.15;17.00;;;17.30;99.90;;;;;;5075078;28;20054;-61
2022/09/13 01:09:48;;;;;;;22.98;18.30;;;17.20;99.90;;;;;;5093144;28;20040;-61
2022/09/13 01:12:39;;;;;;;28.05;18.95;;;17.20;99.90;;;;;;5059245;28;20094;-62
2022/09/13 01:15:05;;;;;;;24.02;17.02;;;17.30;99.90;;;;;;5074199;28;20079;-61
2022/09/13 01:17:33;;;;;;;24.77;18.45;;;17.20;99.90;;;;;;5093530;28;20043;-61
2022/09/13 01:20:00;;;;;;;21.75;16.85;;;17.30;99.90;;;;;;5093156;28;20043;-62
2022/09/13 01:22:47;;;;;;;26.42;18.70;;;17.20;99.90;;;;;;5092776;28;20048;-62
2022/09/13 01:25:16;;;;;;;20.15;16.13;;;17.30;99.90;;;;;;5075411;28;20480;-62
2022/09/13 01:27:48;;;;;;;21.73;16.40;;;17.30;99.90;;;;;;5075089;28;20166;-61
2022/09/13 01:30:19;;;;;;;21.58;17.33;;;17.30;99.90;;;;;;5074453;28;20040;-62
2022/09/13 01:33:14;;;;;;;25.35;18.98;;;17.30;99.90;;;;;;5074939;28;20388;-61
2022/09/13 01:35:58;;;;;;;26.08;19.65;;;17.30;99.90;;;;;;5074406;28;20068;-62
2022/09/13 01:38:29;;;;;;;23.70;17.73;;;17.20;99.90;;;;;;5058735;28;20036;-62
2022/09/13 01:41:32;;;;;;;22.60;17.02;;;17.30;99.90;;;;;;5074532;28;20396;-62
2022/09/13 01:44:42;;;;;;;25.23;19.00;;;17.20;99.90;;;;;;5073913;28;20036;-62
2022/09/13 01:47:22;;;;;;;27.55;19.80;;;17.30;99.90;;;;;;4990721;28;20642;-62
2022/09/13 01:50:02;;;;;;;23.75;17.23;;;17.20;99.90;;;;;;4973758;28;20057;-62
2022/09/13 01:52:37;;;;;;;27.02;18.98;;;17.30;99.90;;;;;;5062292;28;20044;-62
2022/09/13 01:55:26;;;;;;;28.70;19.88;;;17.30;99.90;;;;;;5092542;28;20096;-61
2022/09/13 01:58:19;;;;;;;27.70;17.52;;;17.30;99.90;;;;;;5073547;28;20471;-62
2022/09/13 02:01:17;;;;;;;24.73;17.58;;;17.20;99.90;;;;;;5074606;28;20440;-61
2022/09/13 02:03:54;;;;;;;20.98;16.13;;;17.30;99.90;;;;;;5082391;28;20443;-62
2022/09/13 02:06:26;;;;;;;25.55;18.15;;;17.30;99.90;;;;;;5074757;28;20054;-61
2022/09/13 02:09:11;;;;;;;25.15;17.45;;;17.30;99.90;;;;;;5091689;28;20043;-62
2022/09/13 02:11:39;;;;;;;25.27;17.08;;;17.30;99.90;;;;;;5091772;28;20134;-61
2022/09/13 02:14:29;;;;;;;25.13;18.73;;;17.30;99.90;;;;;;5092229;28;20067;-62
2022/09/13 02:17:02;;;;;;;23.20;17.40;;;17.30;99.90;;;;;;5092329;28;20435;-62
2022/09/13 02:19:37;;;;;;;26.08;18.48;;;17.30;99.90;;;;;;5073978;28;20043;-62
2022/09/13 02:22:06;;;;;;;25.38;17.15;;;17.30;99.90;;;;;;5091753;28;20135;-62
2022/09/13 02:24:41;;;;;;;24.85;17.02;;;17.40;99.90;;;;;;5074253;28;20079;-62
2022/09/13 02:27:20;;;;;;;19.17;13.85;;;17.40;99.90;;;;;;5073968;28;20036;-62
2022/09/13 02:29:50;;;;;;;13.35;8.27;;;17.40;99.90;;;;;;5091765;28;20591;-62
2022/09/13 02:32:45;;;;;;;10.80;5.32;;;17.40;99.90;;;;;;5091615;28;20446;-62
2022/09/13 02:35:35;;;;;;;6.78;2.42;;;17.40;99.90;;;;;;5082635;28;20123;-62
2022/09/13 02:38:04;;;;;;;4.88;1.65;;;17.30;99.90;;;;;;5073078;28;20110;-62
2022/09/13 02:40:41;;;;;;;3.35;1.20;;;17.30;99.90;;;;;;5091341;28;20039;-61
2022/09/13 02:43:30;;;;;;;4.68;1.08;;;17.20;99.90;;;;;;5091981;28;20043;-62
2022/09/13 02:46:29;;;;;;;3.47;1.00;;;17.10;99.90;;;;;;5091128;28;20036;-62
2022/09/13 02:49:18;;;;;;;4.30;1.17;;;17.00;99.90;;;;;;5044329;28;20048;-62
2022/09/13 02:52:22;;;;;;;3.47;1.20;;;17.00;99.90;;;;;;5091035;28;20470;-61
2022/09/13 02:54:50;;;;;;;4.03;1.48;;;17.00;99.90;;;;;;5073108;28;20488;-63
2022/09/13 02:57:24;;;;;;;3.15;1.33;;;17.00;99.90;;;;;;5090965;28;20052;-62
2022/09/13 02:59:49;;;;;;;3.00;1.20;;;17.00;99.90;;;;;;5089868;28;20118;-62
2022/09/13 03:02:19;;;;;;;5.90;1.40;;;17.00;99.90;;;;;;5092291;28;20036;-62
2022/09/13 03:04:45;;;;;;;3.22;1.10;;;17.00;99.90;;;;;;5091849;28;20104;-62
2022/09/13 03:07:12;;;;;;;4.45;1.10;;;17.00;99.90;;;;;;5091382;28;20506;-62
2022/09/13 03:09:46;;;;;;;7.95;1.50;;;17.00;99.90;;;;;;5091826;28;20181;-62
2022/09/13 03:12:49;;;;;;;4.85;1.15;;;17.00;99.90;;;;;;5092191;28;20157;-61
2022/09/13 03:16:00;;;;;;;4.85;1.55;;;17.10;99.90;;;;;;5091322;28;20044;-62
2022/09/13 03:18:39;;;;;;;4.65;1.20;;;17.00;99.90;;;;;;5036354;28;20044;-61
2022/09/13 03:21:22;;;;;;;6.10;1.75;;;17.00;99.90;;;;;;5091941;28;20060;-62
2022/09/13 03:23:57;;;;;;;5.20;1.50;;;17.00;99.90;;;;;;5095066;28;20468;-61
2022/09/13 03:26:48;;;;;;;4.10;1.70;;;17.00;99.90;;;;;;5061239;28;20058;-62
2022/09/13 03:29:35;;;;;;;8.23;2.40;;;17.00;99.90;;;;;;5095053;28;20115;-62
2022/09/13 03:32:28;;;;;;;3.95;1.40;;;17.00;99.90;;;;;;5093770;28;20129;-61
2022/09/13 03:35:14;;;;;;;6.32;1.63;;;17.00;99.90;;;;;;5076847;28;20105;-62
2022/09/13 03:38:04;;;;;;;9.45;2.08;;;17.00;99.90;;;;;;5063130;28;20622;-61
2022/09/13 03:40:51;;;;;;;3.03;1.40;;;17.00;99.90;;;;;;5077565;28;20438;-61
2022/09/13 03:43:35;;;;;;;4.95;1.40;;;17.00;99.90;;;;;;5093757;28;20481;-62
2022/09/13 03:46:08;;;;;;;4.07;1.45;;;17.00;99.90;;;;;;5095256;28;20397;-62
2022/09/13 03:48:41;;;;;;;5.88;1.63;;;17.00;99.90;;;;;;5095597;28;20039;-62
2022/09/13 03:51:09;;;;;;;4.93;1.33;;;17.00;99.90;;;;;;5093898;28;20032;-62
2022/09/13 03:53:39;;;;;;;6.63;2.17;;;17.00;99.90;;;;;;5076884;28;20048;-62
2022/09/13 03:56:16;;;;;;;6.15;1.85;;;17.00;99.90;;;;;;5093979;28;20135;-62
2022/09/13 03:58:42;;;;;;;7.20;2.22;;;17.00;99.90;;;;;;5095212;28;20040;-62
2022/09/13 04:01:09;;;;;;;5.68;1.67;;;17.00;99.90;;;;;;5094623;28;20453;-62
2022/09/13 04:03:36;;;;;;;3.58;1.60;;;17.00;99.90;;;;;;5076087;28;20040;-62
2022/09/13 04:06:02;;;;;;;6.07;2.45;;;17.00;99.90;;;;;;5094287;28;20036;-61
2022/09/13 04:08:28;;;;;;;6.18;1.67;;;17.00;99.90;;;;;;5094702;28;20054;-62
2022/09/13 04:10:54;;;;;;;6.18;2.13;;;17.00;99.90;;;;;;5093612;28;20076;-61
2022/09/13 04:13:21;;;;;;;6.07;1.80;;;17.00;99.90;;;;;;5094966;28;20107;-62
2022/09/13 04:15:49;;;;;;;5.07;1.75;;;17.00;99.90;;;;;;5092933;28;20044;-62
2022/09/13 04:18:15;;;;;;;6.43;2.03;;;17.00;99.90;;;;;;5092772;28;20072;-62
2022/09/13 04:20:41;;;;;;;7.50;1.58;;;17.00;99.90;;;;;;5094416;28;20101;-62
2022/09/13 04:23:07;;;;;;;6.97;2.22;;;17.00;99.90;;;;;;5093108;28;20408;-61
2022/09/13 04:25:37;;;;;;;5.28;2.08;;;17.00;99.90;;;;;;5093958;28;20044;-62
2022/09/13 04:28:03;;;;;;;6.03;1.80;;;17.00;99.90;;;;;;5092949;28;20079;-61
2022/09/13 04:30:29;;;;;;;6.20;2.00;;;16.90;99.90;;;;;;5093833;28;20455;-61
2022/09/13 04:32:57;;;;;;;5.45;2.03;;;17.00;99.90;;;;;;5092926;28;20115;-62
2022/09/13 04:35:23;;;;;;;6.38;2.83;;;17.00;99.90;;;;;;5094566;28;20094;-61
2022/09/13 04:37:48;;;;;;;7.18;2.63;;;16.90;99.90;;;;;;5093926;28;20043;-61
2022/09/13 04:40:14;;;;;;;8.68;2.58;;;17.00;99.90;;;;;;5093486;28;20434;-61
2022/09/13 04:42:40;;;;;;;5.55;2.00;;;17.00;99.90;;;;;;5094245;28;20512;-61
2022/09/13 04:45:07;;;;;;;5.68;2.15;;;16.90;99.90;;;;;;5093670;28;20035;-61
2022/09/13 04:47:32;;;;;;;5.45;2.25;;;16.90;99.90;;;;;;5093349;28;20043;-62
2022/09/13 04:49:58;;;;;;;7.85;2.50;;;16.90;99.90;;;;;;5093684;28;20040;-62
2022/09/13 04:52:24;;;;;;;3.97;1.92;;;16.90;99.90;;;;;;5093378;28;20035;-62
2022/09/13 04:54:49;;;;;;;5.95;2.10;;;16.90;99.90;;;;;;5093307;28;20507;-61
2022/09/13 04:57:21;;;;;;;6.35;2.05;;;16.90;99.90;;;;;;5085489;28;20116;-62
2022/09/13 04:59:51;;;;;;;7.47;2.78;;;16.90;99.90;;;;;;5075221;28;20032;-62
2022/09/13 05:02:20;;;;;;;5.68;2.20;;;16.90;99.90;;;;;;5095894;28;20055;-62
2022/09/13 05:04:46;;;;;;;7.30;2.47;;;16.90;99.90;;;;;;5061382;28;20044;-62
2022/09/13 05:07:12;;;;;;;8.10;2.90;;;16.90;99.90;;;;;;5093298;28;20031;-62
2022/09/13 05:09:38;;;;;;;6.72;2.30;;;16.90;99.90;;;;;;5094082;28;20477;-61
2022/09/13 05:12:07;;;;;;;7.68;2.25;;;16.90;99.90;;;;;;5090488;28;20040;-64
2022/09/13 05:14:33;;;;;;;7.28;2.90;;;16.90;99.90;;;;;;5080937;28;20459;-62
2022/09/13 05:16:59;;;;;;;8.43;2.60;;;16.80;99.90;;;;;;5054217;28;20118;-62
2022/09/13 05:19:25;;;;;;;8.48;2.53;;;16.80;99.90;;;;;;5054261;28;20076;-61
2022/09/13 05:21:50;;;;;;;8.32;2.90;;;16.80;99.90;;;;;;5050359;28;20052;-61
2022/09/13 05:24:16;;;;;;;10.15;2.70;;;16.80;99.90;;;;;;5053331;28;20045;-62
2022/09/13 05:26:42;;;;;;;7.97;2.50;;;16.80;99.90;;;;;;5053244;28;20041;-61
2022/09/13 05:29:07;;;;;;;13.13;3.25;;;16.80;99.90;;;;;;5063900;28;20045;-62
2022/09/13 05:31:36;;;;;;;43.00;4.60;;;16.80;99.90;;;;;;5053085;28;20073;-62
2022/09/13 05:34:06;;;;;;;7.22;2.55;;;16.90;99.90;;;;;;5068094;28;20037;-62
2022/09/13 05:36:32;;;;;;;7.60;2.58;;;16.80;99.90;;;;;;5051200;28;20128;-62
2022/09/13 05:38:59;;;;;;;10.25;2.60;;;16.90;99.90;;;;;;5034613;28;20124;-62
2022/09/13 05:41:25;;;;;;;6.05;2.67;;;16.80;99.90;;;;;;5052996;28;20082;-62
2022/09/13 05:43:50;;;;;;;7.32;2.80;;;16.90;99.90;;;;;;5033266;28;20473;-61
2022/09/13 05:46:18;;;;;;;6.53;2.55;;;16.90;99.90;;;;;;5051610;28;20049;-61
2022/09/13 05:48:45;;;;;;;13.02;2.50;;;16.90;99.90;;;;;;5064472;28;20489;-62
2022/09/13 05:51:15;;;;;;;6.82;2.22;;;16.90;99.90;;;;;;5071798;28;20086;-62
2022/09/13 05:53:43;;;;;;;11.45;2.50;;;16.90;99.90;;;;;;5061812;28;20041;-61
2022/09/13 05:56:10;;;;;;;7.65;2.30;;;16.90;99.90;;;;;;5050198;28;20033;-62
2022/09/13 05:58:41;;;;;;;8.20;1.98;;;16.90;99.90;;;;;;5051576;28;20497;-62
2022/09/13 06:01:08;;;;;;;5.75;2.00;;;16.90;99.90;;;;;;5051003;28;20490;-61
2022/09/13 06:03:35;;;;;;;6.95;2.47;;;16.90;99.90;;;;;;5051604;28;20108;-62
2022/09/13 06:06:00;;;;;;;6.95;1.65;;;16.90;99.90;;;;;;5050791;28;20073;-62
2022/09/13 06:08:28;;;;;;;6.45;2.08;;;16.90;99.90;;;;;;5061452;28;20064;-61
2022/09/13 06:11:05;;;;;;;6.22;1.67;;;16.90;99.90;;;;;;5070741;28;20109;-62
2022/09/13 06:13:31;;;;;;;7.63;1.80;;;16.90;99.90;;;;;;5072496;28;20462;-62
2022/09/13 06:15:59;;;;;;;4.70;1.48;;;16.80;99.90;;;;;;5071758;28;20531;-62
2022/09/13 06:18:25;;;;;;;5.50;1.77;;;16.80;99.90;;;;;;5067320;28;20040;-61
2022/09/13 06:21:01;;;;;;;5.93;1.80;;;16.80;99.90;;;;;;5052174;28;20041;-61
2022/09/13 06:23:28;;;;;;;3.17;1.15;;;16.70;99.90;;;;;;5054378;28;20060;-62
2022/09/13 06:26:05;;;;;;;6.85;1.77;;;16.70;99.90;;;;;;5071040;28;20044;-61
2022/09/13 06:28:32;;;;;;;9.18;2.13;;;16.70;99.90;;;;;;5072422;28;20037;-61
2022/09/13 06:31:07;;;;;;;7.32;1.55;;;16.70;99.90;;;;;;5087132;28;20078;-62
2022/09/13 06:33:40;;;;;;;5.32;1.65;;;16.70;99.90;;;;;;5074008;28;20161;-61
2022/09/13 06:36:09;;;;;;;9.43;1.50;;;16.60;99.90;;;;;;5091606;28;20040;-61
2022/09/13 06:38:35;;;;;;;10.23;2.22;;;16.70;99.90;;;;;;5073668;28;20036;-61
2022/09/13 06:41:00;;;;;;;4.68;1.30;;;16.60;99.90;;;;;;5091813;28;20078;-62
2022/09/13 06:43:26;;;;;;;6.93;1.70;;;16.70;99.90;;;;;;5074435;28;20087;-61
2022/09/13 06:45:52;;;;;;;3.75;1.30;;;16.70;99.90;;;;;;5072887;28;20040;-62
2022/09/13 06:48:18;;;;;;;6.10;1.30;;;16.60;99.90;;;;;;5072910;28;20345;-61
2022/09/13 06:50:44;;;;;;;4.10;1.42;;;16.70;99.90;;;;;;5092270;28;20040;-61
2022/09/13 06:53:11;;;;;;;6.22;1.70;;;16.70;99.90;;;;;;5073423;28;20052;-62
2022/09/13 06:55:37;;;;;;;4.20;1.30;;;16.70;99.90;;;;;;5077925;28;20051;-61
2022/09/13 06:58:03;;;;;;;6.40;1.52;;;16.70;99.90;;;;;;5077681;28;20396;-61
2022/09/13 07:00:28;;;;;;;7.47;1.35;;;16.70;99.90;;;;;;5095517;28;20051;-61
2022/09/13 07:02:54;;;;;;;4.43;1.52;;;16.70;99.90;;;;;;5085453;28;20040;-62
2022/09/13 07:05:20;;;;;;;7.57;1.40;;;16.70;99.90;;;;;;5075707;28;20086;-61
2022/09/13 07:07:46;;;;;;;5.60;1.40;;;16.80;99.90;;;;;;5074582;28;20362;-61
2022/09/13 07:10:12;;;;;;;4.18;1.10;;;16.80;99.90;;;;;;5041526;28;20040;-61
2022/09/13 07:12:40;;;;;;;5.45;1.30;;;16.80;99.90;;;;;;5075845;28;20056;-61
2022/09/13 07:15:06;;;;;;;4.70;1.20;;;16.90;99.90;;;;;;5074205;28;20480;-62
2022/09/13 07:17:32;;;;;;;8.93;1.80;;;16.90;99.90;;;;;;5067358;28;20089;-61
2022/09/13 07:19:57;;;;;;;5.50;1.10;;;16.90;99.90;;;;;;5095337;28;20127;-62
2022/09/13 07:22:26;;;;;;;4.50;1.27;;;16.90;99.90;;;;;;5094705;28;20119;-61
2022/09/13 07:24:52;;;;;;;3.90;1.20;;;16.90;99.90;;;;;;5075456;28;20040;-62
2022/09/13 07:27:18;;;;;;;5.97;1.60;;;16.90;99.90;;;;;;5097097;28;20040;-62
2022/09/13 07:29:44;;;;;;;4.80;1.65;;;17.00;99.90;;;;;;5097600;28;20047;-61
2022/09/13 07:32:09;;;;;;;4.38;0.98;;;17.00;99.90;;;;;;5115725;28;20042;-62
2022/09/13 07:34:35;;;;;;;3.97;1.30;;;17.10;99.90;;;;;;5097134;28;20046;-61
2022/09/13 07:37:01;;;;;;;3.83;1.27;;;17.10;99.90;;;;;;5115557;28;20058;-62
2022/09/13 07:39:26;;;;;;;7.15;1.70;;;17.20;99.90;;;;;;5115831;28;20466;-61
2022/09/13 07:41:52;;;;;;;4.55;1.30;;;17.20;99.90;;;;;;5100049;28;20044;-62
2022/09/13 07:44:18;;;;;;;5.78;1.40;;;17.30;99.90;;;;;;5072351;28;20040;-61
2022/09/13 07:46:44;;;;;;;6.00;1.67;;;17.30;99.90;;;;;;5054334;28;20489;-61
2022/09/13 07:49:12;;;;;;;5.68;1.30;;;17.40;99.90;;;;;;5053873;28;20048;-62
2022/09/13 07:51:39;;;;;;;3.67;1.00;;;17.50;99.90;;;;;;5054329;28;20055;-62
2022/09/13 07:54:10;;;;;;;7.93;1.52;;;17.50;99.90;;;;;;5053615;28;20083;-62
2022/09/13 07:56:37;;;;;;;11.70;2.35;;;17.60;99.90;;;;;;5083931;28;20069;-62
2022/09/13 07:59:05;;;;;;;9.32;1.90;;;17.70;99.90;;;;;;5073627;28;20059;-61
2022/09/13 08:01:39;;;;;;;7.72;1.30;;;17.80;99.90;;;;;;5074151;28;20047;-62
2022/09/13 08:04:11;;;;;;;6.18;1.75;;;17.80;99.90;;;;;;5058874;28;20441;-62
2022/09/13 08:06:38;;;;;;;12.30;1.83;;;17.80;99.90;;;;;;5055303;28;20040;-61
2022/09/13 08:09:05;;;;;;;4.55;1.02;;;17.80;99.90;;;;;;5088364;28;20058;-61
2022/09/13 08:11:36;;;;;;;5.72;1.60;;;17.80;99.90;;;;;;5100136;28;20119;-62
2022/09/13 08:14:02;;;;;;;9.00;1.70;;;17.80;99.90;;;;;;5094206;28;20385;-61
2022/09/13 08:16:29;;;;;;;5.40;1.25;;;17.80;99.90;;;;;;5096331;28;20113;-61
2022/09/13 08:18:57;;;;;;;8.05;1.70;;;17.80;99.90;;;;;;5091641;28;20028;-61
2022/09/13 08:21:24;;;;;;;4.47;1.38;;;17.70;99.90;;;;;;5056164;28;20118;-62
2022/09/13 08:23:54;;;;;;;7.38;1.50;;;17.70;99.90;;;;;;5071159;28;20040;-61
2022/09/13 08:26:19;;;;;;;5.63;1.02;;;17.70;99.90;;;;;;5069425;28;20491;-61
2022/09/13 08:28:45;;;;;;;5.20;1.20;;;17.70;99.90;;;;;;5071578;28;20111;-61
2022/09/13 08:31:15;;;;;;;11.98;1.52;;;17.70;99.90;;;;;;5074148;28;20064;-61
2022/09/13 08:33:43;;;;;;;6.88;1.35;;;17.80;99.90;;;;;;5082230;28;20065;-62
2022/09/13 08:36:09;;;;;;;4.32;1.63;;;17.90;99.90;;;;;;5087810;28;20050;-61
2022/09/13 08:38:34;;;;;;;5.05;1.25;;;18.00;99.90;;;;;;5075496;28;20036;-62
2022/09/13 08:41:38;;;;;;;4.85;1.63;;;18.00;99.90;;;;;;5052556;28;20040;-62
2022/09/13 08:44:16;;;;;;;2.97;1.10;;;18.10;99.90;;;;;;5070188;28;20209;-62
2022/09/13 08:46:46;;;;;;;6.80;1.42;;;18.10;99.90;;;;;;5071055;28;20079;-62
2022/09/13 08:49:26;;;;;;;4.50;1.33;;;18.10;99.90;;;;;;5040578;28;20048;-62
2022/09/13 08:51:58;;;;;;;5.50;1.75;;;18.10;99.90;;;;;;5083040;28;20047;-61
2022/09/13 08:54:25;;;;;;;5.45;1.20;;;18.20;99.90;;;;;;5074590;28;20598;-61
2022/09/13 08:57:14;;;;;;;4.38;1.40;;;18.20;99.90;;;;;;5091149;28;20047;-62
2022/09/13 08:59:53;;;;;;;4.75;1.20;;;18.20;99.90;;;;;;5054301;28;20044;-61
2022/09/13 09:02:19;;;;;;;3.65;1.00;;;18.30;99.90;;;;;;5061211;28;20040;-61
2022/09/13 09:05:15;;;;;;;6.78;1.65;;;18.40;99.90;;;;;;5113719;28;20044;-62
2022/09/13 09:07:57;;;;;;;5.55;1.10;;;18.50;99.90;;;;;;5095466;28;20050;-62
2022/09/13 09:10:30;;;;;;;7.55;1.85;;;18.70;99.90;;;;;;5067477;28;20071;-61
2022/09/13 09:13:29;;;;;;;6.50;1.95;;;18.70;99.90;;;;;;5073508;28;20044;-62
2022/09/13 09:16:18;;;;;;;4.55;1.10;;;18.80;99.90;;;;;;5039107;28;20068;-61
2022/09/13 09:18:48;;;;;;;8.52;1.52;;;18.70;99.90;;;;;;5077340;28;20139;-61
2022/09/13 09:21:17;;;;;;;4.25;1.13;;;18.90;99.90;;;;;;5086883;28;20404;-62
2022/09/13 09:23:54;;;;;;;9.55;1.65;;;18.90;99.90;;;;;;5075281;28;20485;-61
2022/09/13 09:26:27;;;;;;;6.00;1.13;;;18.90;99.90;;;;;;5072073;28;20094;-61
2022/09/13 09:28:56;;;;;;;7.05;1.23;;;18.80;99.90;;;;;;5072021;28;20044;-61
2022/09/13 09:31:53;;;;;;;6.20;1.33;;;18.70;99.90;;;;;;5073248;28;20048;-62
2022/09/13 09:34:41;;;;;;;5.63;1.20;;;18.70;99.90;;;;;;5072194;28;20067;-62
2022/09/13 09:37:24;;;;;;;6.28;1.30;;;18.60;99.90;;;;;;5071049;28;20505;-62
2022/09/13 09:39:52;;;;;;;4.80;1.15;;;18.70;99.90;;;;;;5055698;28;20547;-61
2022/09/13 09:42:26;;;;;;;3.80;0.85;;;18.80;99.90;;;;;;5092349;28;20093;-61
2022/09/13 09:44:59;;;;;;;10.55;1.60;;;18.90;99.90;;;;;;5074501;28;20154;-61
2022/09/13 09:47:29;;;;;;;4.13;0.80;;;19.00;99.90;;;;;;5093280;28;20110;-61
2022/09/13 09:50:08;;;;;;;5.10;1.05;;;19.00;99.90;;;;;;5072733;28;20044;-61
2022/09/13 09:52:50;;;;;;;5.03;1.02;;;18.90;99.90;;;;;;5083160;28;20051;-61
2022/09/13 09:55:27;;;;;;;3.90;1.02;;;18.90;99.90;;;;;;5073018;28;20032;-61
2022/09/13 09:58:45;;;;;;;7.13;1.70;;;18.90;99.90;;;;;;5081674;28;20515;-62
2022/09/13 10:01:23;;;;;;;6.47;1.30;;;19.00;99.90;;;;;;5051797;28;20040;-61
2022/09/13 10:03:52;;;;;;;5.78;1.00;;;19.00;99.90;;;;;;5070036;28;20040;-61
2022/09/13 10:06:22;;;;;;;5.45;1.00;;;19.00;99.90;;;;;;5087551;28;20046;-62
2022/09/13 10:09:00;;;;;;;3.78;1.10;;;19.10;99.90;;;;;;5071766;28;20036;-61
2022/09/13 10:11:47;;;;;;;5.70;1.33;;;19.20;99.90;;;;;;5091079;28;20066;-62
2022/09/13 10:14:47;;;;;;;6.18;1.10;;;19.20;99.90;;;;;;5074658;28;20067;-62
2022/09/13 10:17:20;;;;;;;4.50;1.20;;;19.30;99.90;;;;;;5019080;28;20040;-62
2022/09/13 10:19:58;;;;;;;4.50;1.25;;;19.30;99.90;;;;;;5073336;28;20509;-61
2022/09/13 10:22:25;;;;;;;3.88;0.90;;;19.40;99.90;;;;;;5095162;28;20369;-61
2022/09/13 10:24:52;;;;;;;7.50;1.75;;;19.50;99.90;;;;;;5083639;28;20036;-62
2022/09/13 10:27:33;;;;;;;6.43;1.48;;;19.60;99.90;;;;;;5066094;28;20503;-63
2022/09/13 10:30:02;;;;;;;5.53;1.40;;;19.60;99.90;;;;;;5088197;28;20037;-61
2022/09/13 10:32:29;;;;;;;4.97;1.35;;;19.40;99.90;;;;;;5073572;28;20036;-62
2022/09/13 10:35:00;;;;;;;6.00;1.48;;;19.30;99.90;;;;;;5081042;28;20169;-61
2022/09/13 10:37:33;;;;;;;6.05;1.40;;;19.30;99.90;;;;;;5075955;28;20041;-61
2022/09/13 10:40:02;;;;;;;6.68;1.42;;;19.40;99.90;;;;;;5069296;28;20077;-61
2022/09/13 10:42:30;;;;;;;6.82;1.20;;;19.40;99.90;;;;;;5074907;28;20044;-61
2022/09/13 10:45:03;;;;;;;4.45;1.05;;;19.20;99.90;;;;;;5046609;28;20036;-62
2022/09/13 10:47:45;;;;;;;3.35;0.98;;;19.20;99.90;;;;;;5052347;28;20055;-62
2022/09/13 10:50:19;;;;;;;8.10;1.30;;;19.30;99.90;;;;;;5053576;28;20497;-61
2022/09/13 10:52:48;;;;;;;4.90;1.10;;;19.50;99.90;;;;;;5050109;28;20089;-61
2022/09/13 10:55:19;;;;;;;3.65;1.20;;;19.60;99.90;;;;;;5062125;28;20041;-61
2022/09/13 10:58:02;;;;;;;6.47;1.23;;;19.60;99.90;;;;;;5049306;28;20037;-61
2022/09/13 11:00:39;;;;;;;10.35;1.63;;;19.60;99.90;;;;;;5066631;28;20041;-61
2022/09/13 11:03:20;;;;;;;4.50;1.35;;;19.60;99.90;;;;;;5052635;28;20052;-60
2022/09/13 11:06:00;;;;;;;6.05;1.50;;;19.50;99.90;;;;;;5066010;28;20041;-61
2022/09/13 11:08:43;;;;;;;8.55;1.65;;;19.40;99.90;;;;;;5069668;28;20071;-61
2022/09/13 11:11:20;;;;;;;5.90;1.08;;;19.30;99.90;;;;;;5074198;28;20169;-61
2022/09/13 11:13:52;;;;;;;9.65;1.70;;;19.20;99.90;;;;;;5067264;28;20040;-60
2022/09/13 11:16:45;;;;;;;5.07;1.45;;;19.10;99.90;;;;;;5056764;28;20032;-61
2022/09/13 11:19:30;;;;;;;8.52;1.80;;;19.20;99.90;;;;;;5060054;28;20033;-60
2022/09/13 11:22:32;;;;;;;8.73;1.98;;;19.30;99.90;;;;;;5054993;28;20060;-61
2022/09/13 11:25:01;;;;;;;6.68;1.50;;;19.50;99.90;;;;;;5070512;28;20057;-62
2022/09/13 11:27:50;;;;;;;5.38;1.38;;;19.70;99.90;;;;;;5053499;28;20393;-60
2022/09/13 11:30:21;;;;;;;6.30;1.45;;;19.80;99.90;;;;;;5087616;28;20048;-60
2022/09/13 11:33:11;;;;;;;6.25;1.38;;;19.70;99.90;;;;;;5074922;28;20043;-61
2022/09/13 11:36:02;;;;;;;4.60;1.20;;;19.70;99.90;;;;;;5059398;28;20047;-60
2022/09/13 11:38:56;;;;;;;5.22;1.75;;;19.80;99.90;;;;;;5071918;28;20041;-61
2022/09/13 11:41:43;;;;;;;8.70;1.63;;;19.90;99.90;;;;;;5072477;28;20072;-60
2022/09/13 11:44:27;;;;;;;8.73;1.55;;;19.90;99.90;;;;;;5074677;28;20036;-60
2022/09/13 11:47:18;;;;;;;6.83;1.43;;;19.80;99.90;;;;;;5074902;28;20043;-61
2022/09/13 11:50:17;;;;;;;5.32;1.85;;;19.80;99.90;;;;;;5057201;28;20485;-61
2022/09/13 11:53:13;;;;;;;10.65;2.08;;;19.90;99.90;;;;;;5074871;28;20033;-61
2022/09/13 11:55:47;;;;;;;5.63;1.20;;;20.00;99.90;;;;;;5074420;28;20036;-60
2022/09/13 11:58:20;;;;;;;11.27;2.03;;;20.10;99.90;;;;;;5057027;28;20038;-61
2022/09/13 12:01:11;;;;;;;8.02;1.45;;;20.00;99.90;;;;;;5056643;28;20098;-61
2022/09/13 12:03:49;;;;;;;7.93;2.13;;;20.00;99.90;;;;;;5064422;28;20412;-60
2022/09/13 12:06:23;;;;;;;5.75;1.60;;;19.80;99.90;;;;;;5056879;28;20496;-60
2022/09/13 12:08:52;;;;;;;;;;;19.80;99.90;;;;;;5056272;28;20423;-61
2022/09/13 12:11:23;;;;;;;9.48;2.03;;;19.60;99.90;;;;;;5073450;28;20497;-61
2022/09/13 12:13:57;;;;;;;8.57;1.33;;;19.60;99.90;;;;;;5056205;28;20047;-61
2022/09/13 12:16:29;;;;;;;6.90;1.50;;;19.50;99.90;;;;;;5039291;28;20089;-62
2022/09/13 12:19:11;;;;;;;8.27;1.52;;;19.50;99.90;;;;;;5056130;28;20036;-60
2022/09/13 12:21:39;;;;;;;13.95;2.33;;;19.40;99.90;;;;;;5056535;28;20052;-61
2022/09/13 12:24:14;;;;;;;9.48;1.92;;;19.30;99.90;;;;;;5073085;28;20049;-61
2022/09/13 12:26:53;;;;;;;5.95;1.60;;;19.30;99.90;;;;;;5056725;28;20125;-60
2022/09/13 12:29:49;;;;;;;7.55;1.63;;;19.40;99.90;;;;;;5056794;28;20048;-61
2022/09/13 12:32:16;;;;;;;4.60;1.40;;;19.60;99.90;;;;;;5056432;28;20111;-61
2022/09/13 12:35:14;;;;;;;6.35;1.55;;;19.60;99.90;;;;;;5074390;28;20043;-61
2022/09/13 12:38:01;;;;;;;5.85;1.40;;;19.80;99.90;;;;;;5055434;28;20049;-60
2022/09/13 12:40:45;;;;;;;5.43;1.27;;;19.80;99.90;;;;;;5073937;28;20052;-61
2022/09/13 12:43:22;;;;;;;7.32;2.20;;;19.80;99.90;;;;;;5056488;28;20119;-61
2022/09/13 12:46:25;;;;;;;7.13;1.85;;;19.70;99.90;;;;;;5038314;28;20045;-61
2022/09/13 12:49:01;;;;;;;6.68;2.05;;;19.70;99.90;;;;;;5055556;28;20052;-61
2022/09/13 12:51:48;;;;;;;12.10;1.65;;;19.70;99.90;;;;;;5073013;28;20622;-61
2022/09/13 12:54:34;;;;;;;4.20;1.50;;;19.70;99.90;;;;;;5033117;28;20132;-61
2022/09/13 12:57:27;;;;;;;8.32;1.42;;;19.60;99.70;;;;;;5055324;28;20047;-61
2022/09/13 13:00:01;;;;;;;6.25;1.88;;;19.60;99.90;;;;;;5064007;28;20402;-61
2022/09/13 13:02:29;;;;;;;;;;;19.60;99.90;;;;;;5074126;28;20044;-61
2022/09/13 13:04:59;;;;;;;6.03;1.48;;;19.60;99.90;;;;;;5072276;28;19917;-61
2022/09/13 13:07:27;;;;;;;7.88;1.52;;;19.70;99.90;;;;;;5055801;28;20040;-61
2022/09/13 13:09:55;;;;;;;6.22;1.40;;;19.70;99.70;;;;;;5055064;28;20044;-61
2022/09/13 13:12:29;;;;;;;2.67;1.10;;;19.70;99.40;;;;;;5054949;28;20033;-62
2022/09/13 13:14:55;;;;;;;8.25;1.73;;;19.70;99.40;;;;;;5055028;28;20040;-61
2022/09/13 13:17:47;;;;;;;10.27;1.70;;;19.70;98.70;;;;;;5055621;28;20048;-61